Time;durP1;ratioP1;P1;durP2;ratioP2;P2;SDS_P1;SDS_P2;PMS_P1;PMS_P2;Temp;Humidity;BMP_temperature;BMP_pressure;BME280_temperature;BME280_humidity;BME280_pressure;Samples;Min_cycle;Max_cycle;Signal;HPM_P1;HPM_P2
2022/02/16 00:01:29;;;;;;;39.00;10.98;;;;;;;;;;4838566;29;20128;-77
2022/02/16 00:03:55;;;;;;;37.08;11.63;;;;;;;;;;4809187;29;20139;-78
2022/02/16 00:06:21;;;;;;;38.40;11.98;;;;;;;;;;4808642;29;20125;-77
2022/02/16 00:08:47;;;;;;;31.52;10.95;;;;;;;;;;4830284;29;20512;-77
2022/02/16 00:11:13;;;;;;;55.67;14.55;;;;;;;;;;4835733;29;20073;-83
2022/02/16 00:13:40;;;;;;;40.60;10.93;;;;;;;;;;4823895;29;20060;-78
2022/02/16 00:16:08;;;;;;;40.90;11.13;;;;;;;;;;4839115;29;20527;-77
2022/02/16 00:18:38;;;;;;;40.28;11.10;;;;;;;;;;4821145;29;20121;-77
2022/02/16 00:21:05;;;;;;;35.05;10.55;;;;;;;;;;4840775;29;20084;-78
2022/02/16 00:23:31;;;;;;;42.55;10.50;;;;;;;;;;4835604;29;20045;-79
2022/02/16 00:25:59;;;;;;;38.08;9.13;;;;;;;;;;4838292;29;20053;-76
2022/02/16 00:28:26;;;;;;;38.67;9.65;;;;;;;;;;4837877;29;20113;-79
2022/02/16 00:30:52;;;;;;;33.53;9.32;;;;;;;;;;4823919;29;20128;-80
2022/02/16 00:33:18;;;;;;;43.53;10.32;;;;;;;;;;4838063;29;20088;-78
2022/02/16 00:35:44;;;;;;;39.22;9.70;;;;;;;;;;4840306;29;20053;-77
2022/02/16 00:38:10;;;;;;;38.03;10.23;;;;;;;;;;4808883;29;20140;-78
2022/02/16 00:40:37;;;;;;;43.60;8.98;;;;;;;;;;4824696;29;20098;-77
2022/02/16 00:43:03;;;;;;;39.08;8.00;;;;;;;;;;4823445;29;20068;-80
2022/02/16 00:45:31;;;;;;;28.05;7.82;;;;;;;;;;4839338;29;20506;-80
2022/02/16 00:47:57;;;;;;;34.22;9.32;;;;;;;;;;4834481;29;20125;-80
2022/02/16 00:50:23;;;;;;;34.72;8.95;;;;;;;;;;4842623;29;20052;-80
2022/02/16 00:52:49;;;;;;;29.70;8.07;;;;;;;;;;4855806;29;20061;-79
2022/02/16 00:55:15;;;;;;;33.08;7.50;;;;;;;;;;4871865;29;20072;-80
2022/02/16 00:57:41;;;;;;;36.22;7.72;;;;;;;;;;4826980;29;20434;-76
2022/02/16 01:00:08;;;;;;;31.55;7.53;;;;;;;;;;4826482;29;20045;-82
2022/02/16 01:02:34;;;;;;;39.60;7.10;;;;;;;;;;4859547;29;20358;-78
2022/02/16 01:05:00;;;;;;;32.10;7.28;;;;;;;;;;4827616;29;20385;-79
2022/02/16 01:07:26;;;;;;;30.65;7.63;;;;;;;;;;4843515;29;20056;-78
2022/02/16 01:09:52;;;;;;;29.05;6.97;;;;;;;;;;4860512;29;20053;-78
2022/02/16 01:12:18;;;;;;;34.88;8.27;;;;;;;;;;4850091;29;20057;-78
2022/02/16 01:14:45;;;;;;;28.80;7.10;;;;;;;;;;4830830;29;20062;-78
2022/02/16 01:17:11;;;;;;;35.95;7.75;;;;;;;;;;4843143;29;20075;-82
2022/02/16 01:19:37;;;;;;;39.50;8.10;;;;;;;;;;4839307;29;20041;-79
2022/02/16 01:22:03;;;;;;;47.45;7.97;;;;;;;;;;4841763;29;20129;-78
2022/02/16 01:24:29;;;;;;;30.17;7.95;;;;;;;;;;4842311;29;20571;-78
2022/02/16 01:26:56;;;;;;;46.50;9.52;;;;;;;;;;4843254;29;20045;-77
2022/02/16 01:29:23;;;;;;;50.30;10.18;;;;;;;;;;4841422;29;20404;-78
2022/02/16 01:31:50;;;;;;;49.47;9.55;;;;;;;;;;4835086;29;20065;-78
2022/02/16 01:34:16;;;;;;;45.28;10.25;;;;;;;;;;4868215;29;20089;-78
2022/02/16 01:36:42;;;;;;;42.53;9.13;;;;;;;;;;4843049;29;20538;-79
2022/02/16 01:39:08;;;;;;;50.58;11.45;;;;;;;;;;4828724;29;20128;-78
2022/02/16 01:41:35;;;;;;;58.92;12.55;;;;;;;;;;4840950;29;20103;-79
2022/02/16 01:44:01;;;;;;;42.90;11.50;;;;;;;;;;4813188;29;20046;-78
2022/02/16 01:46:27;;;;;;;48.60;11.85;;;;;;;;;;4831677;29;20552;-78
2022/02/16 01:48:53;;;;;;;57.13;11.98;;;;;;;;;;4824665;29;20061;-79
2022/02/16 01:51:19;;;;;;;60.83;13.38;;;;;;;;;;4826068;29;20053;-84
2022/02/16 01:53:45;;;;;;;58.75;12.73;;;;;;;;;;4840255;29;20050;-82
2022/02/16 01:56:11;;;;;;;51.92;12.45;;;;;;;;;;4840998;29;20052;-79
2022/02/16 01:58:38;;;;;;;49.22;11.40;;;;;;;;;;4870684;29;20041;-79
2022/02/16 02:01:05;;;;;;;36.17;11.98;;;;;;;;;;4837592;29;20481;-78
2022/02/16 02:03:31;;;;;;;50.45;11.02;;;;;;;;;;4839581;29;20473;-78
2022/02/16 02:05:57;;;;;;;42.55;9.20;;;;;;;;;;4842133;29;20049;-78
2022/02/16 02:08:24;;;;;;;34.70;9.45;;;;;;;;;;4839478;29;20054;-90
2022/02/16 02:10:56;;;;;;;38.58;8.63;;;;;;;;;;4841962;29;20454;-79
2022/02/16 02:13:22;;;;;;;39.30;10.73;;;;;;;;;;4840839;29;20113;-78
2022/02/16 02:15:49;;;;;;;39.78;9.20;;;;;;;;;;4842298;29;20438;-79
2022/02/16 02:18:15;;;;;;;38.65;8.90;;;;;;;;;;4851977;29;20396;-79
2022/02/16 02:20:42;;;;;;;35.30;8.43;;;;;;;;;;4840800;29;20128;-79
2022/02/16 02:23:08;;;;;;;38.05;7.65;;;;;;;;;;4841380;29;20050;-78
2022/02/16 02:25:48;;;;;;;33.47;8.50;;;;;;;;;;4825894;29;20091;-79
2022/02/16 02:28:15;;;;;;;31.95;7.82;;;;;;;;;;4840861;29;20132;-78
2022/02/16 02:30:41;;;;;;;28.63;8.65;;;;;;;;;;4856678;29;20061;-78
2022/02/16 02:33:08;;;;;;;32.90;7.95;;;;;;;;;;4857924;29;20101;-84
2022/02/16 02:35:34;;;;;;;36.30;7.63;;;;;;;;;;4842454;29;20065;-79
2022/02/16 02:38:00;;;;;;;42.75;7.78;;;;;;;;;;4842256;29;20057;-78
2022/02/16 02:40:26;;;;;;;36.72;7.85;;;;;;;;;;4825079;29;20485;-82
2022/02/16 02:42:52;;;;;;;37.63;8.73;;;;;;;;;;4841484;29;20049;-80
2022/02/16 02:45:18;;;;;;;35.47;7.75;;;;;;;;;;4853933;29;20438;-79
2022/02/16 02:47:44;;;;;;;39.13;8.88;;;;;;;;;;4856557;29;20049;-79
2022/02/16 02:50:10;;;;;;;28.05;9.75;;;;;;;;;;4871987;29;20053;-78
2022/02/16 02:52:36;;;;;;;51.22;11.60;;;;;;;;;;4837079;29;20477;-79
2022/02/16 02:55:04;;;;;;;38.47;12.27;;;;;;;;;;4839602;29;20132;-79
2022/02/16 02:57:30;;;;;;;53.60;13.63;;;;;;;;;;4841284;29;20385;-78
2022/02/16 02:59:56;;;;;;;44.33;13.57;;;;;;;;;;4826625;29;20442;-79
2022/02/16 03:02:23;;;;;;;34.95;14.50;;;;;;;;;;4841244;29;20561;-79
2022/02/16 03:04:49;;;;;;;46.25;16.00;;;;;;;;;;4824149;29;20088;-78
2022/02/16 03:07:15;;;;;;;44.00;15.77;;;;;;;;;;4826903;29;20041;-78
2022/02/16 03:09:42;;;;;;;44.20;15.93;;;;;;;;;;4839041;29;20064;-78
2022/02/16 03:12:08;;;;;;;52.33;18.67;;;;;;;;;;4841306;29;20120;-79
2022/02/16 03:14:37;;;;;;;46.88;18.65;;;;;;;;;;4854501;29;20056;-79
2022/02/16 03:17:04;;;;;;;42.92;19.67;;;;;;;;;;4826841;29;20037;-81
2022/02/16 03:19:30;;;;;;;44.22;19.38;;;;;;;;;;4826087;29;20474;-80
2022/02/16 03:21:56;;;;;;;53.17;20.45;;;;;;;;;;4825571;29;20443;-78
2022/02/16 03:24:22;;;;;;;53.55;23.02;;;;;;;;;;4841031;29;20068;-79
2022/02/16 03:26:48;;;;;;;52.78;21.80;;;;;;;;;;4840658;29;20053;-82
2022/02/16 03:29:14;;;;;;;55.25;24.08;;;;;;;;;;4839318;29;20051;-79
2022/02/16 03:31:42;;;;;;;48.47;24.23;;;;;;;;;;4839539;29;20346;-78
2022/02/16 03:34:08;;;;;;;56.80;26.85;;;;;;;;;;4836963;29;20077;-78
2022/02/16 03:36:34;;;;;;;52.28;25.85;;;;;;;;;;4836429;29;20096;-77
2022/02/16 03:39:00;;;;;;;52.30;27.63;;;;;;;;;;4842424;29;20049;-78
2022/02/16 03:41:26;;;;;;;53.70;26.88;;;;;;;;;;4840654;29;20110;-80
2022/02/16 03:43:52;;;;;;;54.58;27.35;;;;;;;;;;4840390;29;20056;-79
2022/02/16 03:46:19;;;;;;;56.63;27.60;;;;;;;;;;4824939;29;20128;-78
2022/02/16 03:48:45;;;;;;;50.55;28.13;;;;;;;;;;4839872;29;20384;-79
2022/02/16 03:51:11;;;;;;;51.22;27.35;;;;;;;;;;4856603;29;20493;-78
2022/02/16 03:53:37;;;;;;;47.35;26.92;;;;;;;;;;4840913;29;20447;-78
2022/02/16 03:56:03;;;;;;;51.45;28.55;;;;;;;;;;4824080;29;20500;-78
2022/02/16 03:58:29;;;;;;;53.47;28.27;;;;;;;;;;4841184;29;20084;-78
2022/02/16 04:00:55;;;;;;;51.13;27.90;;;;;;;;;;4834470;29;20045;-78
2022/02/16 04:03:21;;;;;;;44.53;25.92;;;;;;;;;;4839626;29;20132;-79
2022/02/16 04:05:47;;;;;;;45.38;25.85;;;;;;;;;;4857295;29;20093;-78
2022/02/16 04:08:13;;;;;;;39.97;25.20;;;;;;;;;;4839336;29;20045;-79
2022/02/16 04:10:40;;;;;;;41.00;24.65;;;;;;;;;;4840729;29;20076;-78
2022/02/16 04:13:06;;;;;;;43.33;25.60;;;;;;;;;;4838150;29;20073;-80
2022/02/16 04:15:33;;;;;;;42.40;25.80;;;;;;;;;;4841539;29;20101;-83
2022/02/16 04:18:00;;;;;;;39.70;23.35;;;;;;;;;;4871409;29;20050;-78
2022/02/16 04:20:26;;;;;;;44.85;26.15;;;;;;;;;;4840637;29;20516;-78
2022/02/16 04:22:53;;;;;;;49.08;25.38;;;;;;;;;;4844029;29;20053;-80
2022/02/16 04:25:19;;;;;;;44.90;25.13;;;;;;;;;;4842395;29;20450;-79
2022/02/16 04:27:46;;;;;;;43.45;24.35;;;;;;;;;;4842404;29;20053;-78
2022/02/16 04:30:12;;;;;;;45.92;25.23;;;;;;;;;;4844276;29;20091;-78
2022/02/16 04:32:38;;;;;;;36.97;23.08;;;;;;;;;;4841454;29;20057;-78
2022/02/16 04:35:05;;;;;;;48.05;23.80;;;;;;;;;;4840164;29;20054;-78
2022/02/16 04:37:31;;;;;;;38.40;23.55;;;;;;;;;;4837314;29;20053;-78
2022/02/16 04:39:57;;;;;;;38.10;23.45;;;;;;;;;;4840549;29;20052;-83
2022/02/16 04:42:24;;;;;;;43.05;25.30;;;;;;;;;;4844179;29;20464;-78
2022/02/16 04:44:50;;;;;;;43.88;23.67;;;;;;;;;;4859205;29;20049;-78
2022/02/16 04:47:16;;;;;;;41.42;23.60;;;;;;;;;;4858682;29;20102;-78
2022/02/16 04:49:43;;;;;;;42.28;24.48;;;;;;;;;;4843592;29;20057;-78
2022/02/16 04:52:09;;;;;;;39.17;23.35;;;;;;;;;;4843427;29;20139;-78
2022/02/16 04:54:36;;;;;;;37.92;24.83;;;;;;;;;;4825957;29;20053;-78
2022/02/16 04:57:02;;;;;;;41.97;24.27;;;;;;;;;;4843870;29;20192;-78
2022/02/16 04:59:28;;;;;;;43.00;24.27;;;;;;;;;;4828294;29;20141;-77
2022/02/16 05:01:54;;;;;;;40.83;24.60;;;;;;;;;;4842686;29;20058;-78
2022/02/16 05:04:20;;;;;;;39.58;24.33;;;;;;;;;;4829616;29;20067;-78
2022/02/16 05:06:46;;;;;;;37.03;22.60;;;;;;;;;;4871699;29;20056;-79
2022/02/16 05:09:12;;;;;;;35.80;23.25;;;;;;;;;;4841012;29;20114;-78
2022/02/16 05:11:38;;;;;;;37.58;22.17;;;;;;;;;;4827067;29;20053;-88
2022/02/16 05:14:04;;;;;;;29.80;20.45;;;;;;;;;;4843457;29;20080;-78
2022/02/16 05:16:31;;;;;;;32.20;21.08;;;;;;;;;;4872648;29;20050;-78
2022/02/16 05:18:59;;;;;;;40.00;21.40;;;;;;;;;;4842346;29;20050;-78
2022/02/16 05:21:25;;;;;;;36.50;21.83;;;;;;;;;;4828298;29;20054;-78
2022/02/16 05:23:51;;;;;;;32.15;20.48;;;;;;;;;;4872390;29;20058;-79
2022/02/16 05:26:17;;;;;;;38.40;21.60;;;;;;;;;;4858891;29;20057;-79
2022/02/16 05:28:44;;;;;;;41.90;21.98;;;;;;;;;;4841456;29;20042;-79
2022/02/16 05:31:10;;;;;;;33.25;21.02;;;;;;;;;;4850095;29;20098;-78
2022/02/16 05:33:36;;;;;;;40.20;22.23;;;;;;;;;;4840306;29;20445;-82
2022/02/16 05:36:03;;;;;;;45.20;21.80;;;;;;;;;;4841277;29;20064;-79
2022/02/16 05:38:29;;;;;;;41.58;20.63;;;;;;;;;;4841217;29;20106;-79
2022/02/16 05:40:55;;;;;;;33.08;17.73;;;;;;;;;;4833895;29;20085;-76
2022/02/16 05:43:21;;;;;;;27.65;16.40;;;;;;;;;;4841495;29;20054;-78
2022/02/16 05:45:48;;;;;;;30.75;16.63;;;;;;;;;;4856354;29;20178;-79
2022/02/16 05:48:20;;;;;;;27.85;15.60;;;;;;;;;;4828985;29;20054;-79
2022/02/16 05:50:47;;;;;;;28.80;16.27;;;;;;;;;;4855065;29;20053;-81
2022/02/16 05:53:14;;;;;;;28.75;16.58;;;;;;;;;;4832001;29;20041;-76
2022/02/16 05:55:40;;;;;;;32.15;17.65;;;;;;;;;;4838179;29;20045;-81
2022/02/16 05:58:06;;;;;;;29.52;16.40;;;;;;;;;;4834485;29;20068;-86
2022/02/16 06:00:32;;;;;;;26.33;16.65;;;;;;;;;;4834706;29;20053;-78
2022/02/16 06:02:58;;;;;;;30.38;18.90;;;;;;;;;;4831595;29;20129;-80
2022/02/16 06:05:25;;;;;;;32.20;19.13;;;;;;;;;;4820974;29;20132;-78
2022/02/16 06:07:51;;;;;;;28.48;18.90;;;;;;;;;;4840963;29;20068;-80
2022/02/16 06:10:17;;;;;;;27.80;19.50;;;;;;;;;;4843101;29;20471;-81
2022/02/16 06:12:43;;;;;;;30.42;20.25;;;;;;;;;;4830999;29;20114;-79
2022/02/16 06:15:10;;;;;;;31.70;20.35;;;;;;;;;;4842247;29;20135;-79
2022/02/16 06:17:36;;;;;;;33.63;21.42;;;;;;;;;;4843274;29;20177;-74
2022/02/16 06:20:02;;;;;;;35.22;21.60;;;;;;;;;;4830130;29;20215;-79
2022/02/16 06:22:28;;;;;;;28.83;20.48;;;;;;;;;;4847552;29;20049;-80
2022/02/16 06:24:54;;;;;;;32.53;20.77;;;;;;;;;;4842335;29;20050;-79
2022/02/16 06:27:20;;;;;;;33.90;20.88;;;;;;;;;;4838924;29;20045;-80
2022/02/16 06:29:46;;;;;;;34.80;20.75;;;;;;;;;;4842873;29;20460;-80
2022/02/16 06:32:12;;;;;;;26.40;18.48;;;;;;;;;;4849538;29;20057;-80
2022/02/16 06:34:39;;;;;;;30.27;19.48;;;;;;;;;;4844472;29;20382;-81
2022/02/16 06:37:05;;;;;;;27.65;18.30;;;;;;;;;;4842720;29;20249;-80
2022/02/16 06:39:31;;;;;;;24.08;16.45;;;;;;;;;;4833300;29;20413;-80
2022/02/16 06:41:57;;;;;;;21.67;16.48;;;;;;;;;;4839061;29;20519;-80
2022/02/16 06:44:23;;;;;;;26.27;16.73;;;;;;;;;;4834273;29;20509;-84
2022/02/16 06:46:49;;;;;;;25.63;16.98;;;;;;;;;;4841758;29;20516;-80
2022/02/16 06:49:15;;;;;;;26.40;17.70;;;;;;;;;;4829699;29;20472;-81
2022/02/16 06:51:43;;;;;;;25.05;16.50;;;;;;;;;;4836923;29;20065;-80
2022/02/16 06:54:09;;;;;;;22.50;15.23;;;;;;;;;;4856267;29;20508;-80
2022/02/16 06:56:35;;;;;;;24.45;16.70;;;;;;;;;;4837685;29;20652;-80
2022/02/16 06:59:01;;;;;;;22.05;14.60;;;;;;;;;;4824030;29;20377;-80
2022/02/16 07:01:28;;;;;;;21.92;14.70;;;;;;;;;;4832638;29;20052;-80
2022/02/16 07:03:54;;;;;;;22.00;14.77;;;;;;;;;;4835828;29;20435;-80
2022/02/16 07:06:20;;;;;;;20.17;13.27;;;;;;;;;;4834647;29;20057;-80
2022/02/16 07:08:47;;;;;;;17.85;13.20;;;;;;;;;;4819447;29;20399;-82
2022/02/16 07:11:13;;;;;;;18.92;13.30;;;;;;;;;;4817622;29;20056;-80
2022/02/16 07:13:39;;;;;;;16.40;12.18;;;;;;;;;;4852464;29;20137;-80
2022/02/16 07:16:05;;;;;;;15.85;11.30;;;;;;;;;;4826139;29;20046;-83
2022/02/16 07:18:33;;;;;;;16.42;10.52;;;;;;;;;;4821083;29;20371;-80
2022/02/16 07:21:00;;;;;;;14.25;10.05;;;;;;;;;;4860792;29;20057;-79
2022/02/16 07:23:26;;;;;;;17.98;10.85;;;;;;;;;;4842478;29;20174;-81
2022/02/16 07:25:52;;;;;;;14.75;10.18;;;;;;;;;;4846258;29;20053;-80
2022/02/16 07:28:18;;;;;;;13.20;9.88;;;;;;;;;;4828463;29;20078;-80
2022/02/16 07:30:45;;;;;;;11.52;8.57;;;;;;;;;;4853155;29;20068;-80
2022/02/16 07:33:12;;;;;;;11.65;7.97;;;;;;;;;;4860080;29;20073;-80
2022/02/16 07:35:39;;;;;;;13.35;9.00;;;;;;;;;;4836534;29;20057;-80
2022/02/16 07:38:05;;;;;;;13.43;8.35;;;;;;;;;;4815983;29;20054;-80
2022/02/16 07:40:31;;;;;;;10.38;7.90;;;;;;;;;;4834751;29;20085;-79
2022/02/16 07:42:57;;;;;;;9.95;6.75;;;;;;;;;;4841481;29;20058;-80
2022/02/16 07:45:23;;;;;;;8.90;7.03;;;;;;;;;;4841506;29;20076;-80
2022/02/16 07:47:49;;;;;;;9.15;7.15;;;;;;;;;;4835742;29;20116;-80
2022/02/16 07:50:15;;;;;;;7.88;6.22;;;;;;;;;;4855363;29;20056;-80
2022/02/16 07:52:42;;;;;;;9.63;6.70;;;;;;;;;;4864137;29;20465;-80
2022/02/16 07:55:08;;;;;;;8.20;6.32;;;;;;;;;;4832001;29;20153;-80
2022/02/16 07:57:34;;;;;;;7.57;5.63;;;;;;;;;;4825766;29;20061;-84
2022/02/16 08:00:00;;;;;;;10.40;6.18;;;;;;;;;;4869471;29;20086;-80
2022/02/16 08:02:27;;;;;;;8.13;5.65;;;;;;;;;;4842897;29;20107;-80
2022/02/16 08:04:53;;;;;;;6.88;5.47;;;;;;;;;;4832886;29;20057;-86
2022/02/16 08:07:19;;;;;;;6.70;5.28;;;;;;;;;;4838231;29;20076;-81
2022/02/16 08:09:45;;;;;;;8.18;4.97;;;;;;;;;;4847784;29;20058;-81
2022/02/16 08:12:12;;;;;;;5.30;4.50;;;;;;;;;;4829904;29;20042;-80
2022/02/16 08:14:38;;;;;;;7.65;5.05;;;;;;;;;;4862212;29;20062;-82
2022/02/16 08:17:05;;;;;;;6.38;5.00;;;;;;;;;;4834620;29;20049;-82
2022/02/16 08:19:31;;;;;;;5.30;4.00;;;;;;;;;;4862235;29;20085;-80
2022/02/16 08:21:58;;;;;;;5.45;4.32;;;;;;;;;;4838252;29;20053;-80
2022/02/16 08:24:27;;;;;;;4.07;3.67;;;;;;;;;;4833645;29;20046;-79
2022/02/16 08:26:54;;;;;;;4.05;3.17;;;;;;;;;;4851218;29;20054;-86
2022/02/16 08:29:22;;;;;;;5.93;3.70;;;;;;;;;;4846817;29;20050;-80
2022/02/16 08:31:48;;;;;;;5.07;3.97;;;;;;;;;;4837700;29;20128;-83
2022/02/16 08:34:14;;;;;;;3.50;3.03;;;;;;;;;;4846345;29;20060;-81
2022/02/16 08:36:41;;;;;;;4.50;3.80;;;;;;;;;;4828872;29;20093;-81
2022/02/16 08:39:07;;;;;;;4.15;3.40;;;;;;;;;;4835082;29;20060;-81
2022/02/16 08:41:33;;;;;;;5.88;4.40;;;;;;;;;;4868880;29;20064;-82
2022/02/16 08:43:59;;;;;;;5.15;4.65;;;;;;;;;;4828035;29;20084;-83
2022/02/16 08:46:25;;;;;;;8.68;6.15;;;;;;;;;;4835738;29;20455;-82
2022/02/16 08:48:51;;;;;;;9.43;6.00;;;;;;;;;;4845103;29;20128;-82
2022/02/16 08:51:17;;;;;;;8.73;7.07;;;;;;;;;;4843240;29;20081;-84
2022/02/16 08:53:43;;;;;;;10.95;7.47;;;;;;;;;;4849316;29;20045;-84
2022/02/16 08:56:09;;;;;;;17.77;8.93;;;;;;;;;;4828151;29;20049;-86
2022/02/16 08:58:36;;;;;;;15.45;9.73;;;;;;;;;;4843632;29;20136;-80
2022/02/16 09:01:02;;;;;;;17.98;10.02;;;;;;;;;;4852243;29;20050;-80
2022/02/16 09:03:29;;;;;;;21.35;10.88;;;;;;;;;;4833266;29;20061;-81
2022/02/16 09:05:55;;;;;;;20.05;9.88;;;;;;;;;;4829705;29;20093;-86
2022/02/16 09:08:22;;;;;;;22.23;10.18;;;;;;;;;;4836860;29;20061;-84
2022/02/16 09:10:48;;;;;;;20.05;10.98;;;;;;;;;;4843906;29;20045;-82
2022/02/16 09:13:14;;;;;;;23.52;10.23;;;;;;;;;;4833465;29;20046;-88
2022/02/16 09:15:40;;;;;;;22.83;10.13;;;;;;;;;;4866506;29;20133;-84
2022/02/16 09:18:06;;;;;;;26.50;10.35;;;;;;;;;;4859296;29;20511;-86
2022/02/16 09:20:33;;;;;;;22.10;7.60;;;;;;;;;;4831202;29;20049;-84
2022/02/16 09:23:00;;;;;;;20.90;7.57;;;;;;;;;;4853276;29;20406;-85
2022/02/16 09:25:26;;;;;;;29.75;7.75;;;;;;;;;;4842344;29;20052;-83
2022/02/16 09:27:52;;;;;;;25.40;7.35;;;;;;;;;;4841464;29;20109;-83
2022/02/16 09:30:18;;;;;;;23.17;6.60;;;;;;;;;;4848878;29;20037;-82
2022/02/16 09:32:44;;;;;;;23.85;6.38;;;;;;;;;;4848903;29;20052;-85
2022/02/16 09:35:11;;;;;;;27.92;6.65;;;;;;;;;;4846508;29;20045;-84
2022/02/16 09:37:37;;;;;;;18.63;4.88;;;;;;;;;;4829911;29;20049;-85
2022/02/16 09:40:04;;;;;;;21.40;4.53;;;;;;;;;;4859529;29;20481;-86
2022/02/16 09:42:32;;;;;;;23.35;5.85;;;;;;;;;;4830558;29;20392;-85
2022/02/16 09:45:05;;;;;;;23.65;4.28;;;;;;;;;;4851986;29;20053;-85
2022/02/16 09:47:32;;;;;;;27.73;4.35;;;;;;;;;;4849485;29;20485;-84
2022/02/16 09:49:58;;;;;;;16.83;3.17;;;;;;;;;;4847988;29;20038;-84
2022/02/16 09:52:25;;;;;;;15.38;4.22;;;;;;;;;;4851492;29;20057;-85
2022/02/16 09:54:52;;;;;;;16.77;3.53;;;;;;;;;;4858619;29;20132;-85
2022/02/16 09:57:18;;;;;;;18.65;3.38;;;;;;;;;;4845907;29;20101;-85
2022/02/16 09:59:44;;;;;;;23.95;3.15;;;;;;;;;;4849395;29;20137;-84
2022/02/16 10:02:12;;;;;;;15.52;3.22;;;;;;;;;;4831273;29;20450;-83
2022/02/16 10:04:41;;;;;;;13.48;2.80;;;;;;;;;;4878309;29;20128;-84
2022/02/16 10:07:36;;;;;;;13.55;2.55;;;;;;;;;;4858644;29;20045;-84
2022/02/16 10:10:22;;;;;;;13.90;2.75;;;;;;;;;;4820012;29;20517;-87
2022/02/16 10:12:50;;;;;;;17.63;3.15;;;;;;;;;;4845266;29;20081;-88
2022/02/16 10:15:18;;;;;;;18.60;2.85;;;;;;;;;;4850787;29;20052;-85
2022/02/16 10:17:44;;;;;;;14.70;3.05;;;;;;;;;;4849710;29;20054;-82
2022/02/16 10:20:11;;;;;;;17.23;3.42;;;;;;;;;;4852833;29;20037;-85
2022/02/16 10:22:42;;;;;;;15.40;2.95;;;;;;;;;;4846338;29;20053;-84
2022/02/16 10:25:09;;;;;;;17.00;2.83;;;;;;;;;;4845608;29;20408;-84
2022/02/16 10:27:35;;;;;;;17.88;2.80;;;;;;;;;;4841285;29;20527;-83
2022/02/16 10:30:10;;;;;;;12.43;3.05;;;;;;;;;;4844753;29;20053;-84
2022/02/16 10:32:36;;;;;;;16.38;3.03;;;;;;;;;;4829638;29;21405;-87
2022/02/16 10:35:03;;;;;;;15.18;3.08;;;;;;;;;;4825341;29;20049;-87
2022/02/16 10:37:33;;;;;;;24.35;4.22;;;;;;;;;;4840565;29;20409;-87
2022/02/16 10:40:00;;;;;;;13.35;2.65;;;;;;;;;;4846121;29;20057;-87
2022/02/16 10:42:26;;;;;;;14.57;3.35;;;;;;;;;;4840836;29;20046;-86
2022/02/16 10:45:09;;;;;;;13.95;3.17;;;;;;;;;;4826876;29;20061;-84
2022/02/16 10:47:56;;;;;;;18.13;3.65;;;;;;;;;;4839272;29;20056;-87
2022/02/16 10:50:23;;;;;;;15.60;2.30;;;;;;;;;;4841784;29;20473;-87
2022/02/16 10:53:00;;;;;;;12.13;2.58;;;;;;;;;;4840065;29;20046;-87
2022/02/16 10:55:55;;;;;;;14.63;2.70;;;;;;;;;;4865373;29;20076;-87
2022/02/16 10:58:23;;;;;;;17.00;3.42;;;;;;;;;;4834531;29;20061;-89
2022/02/16 11:00:51;;;;;;;13.32;2.20;;;;;;;;;;4841967;29;20050;-87
2022/02/16 11:03:23;;;;;;;13.50;2.92;;;;;;;;;;4842492;29;20045;-87
2022/02/16 11:05:50;;;;;;;16.27;2.55;;;;;;;;;;4841705;29;20041;-87
2022/02/16 11:08:19;;;;;;;13.23;2.47;;;;;;;;;;4826573;29;20132;-86
2022/02/16 11:10:45;;;;;;;14.50;3.00;;;;;;;;;;4842737;29;20057;-86
2022/02/16 11:13:12;;;;;;;14.52;2.47;;;;;;;;;;4824369;29;20434;-86
2022/02/16 11:15:39;;;;;;;13.77;1.85;;;;;;;;;;4826117;29;20056;-85
2022/02/16 11:18:13;;;;;;;16.23;2.50;;;;;;;;;;4841157;29;20385;-83
2022/02/16 11:20:39;;;;;;;15.75;2.50;;;;;;;;;;4832442;29;20318;-85
2022/02/16 11:23:05;;;;;;;13.57;2.22;;;;;;;;;;4843087;29;20819;-85
2022/02/16 11:25:33;;;;;;;17.42;2.60;;;;;;;;;;4859359;29;20046;-84
2022/02/16 11:28:00;;;;;;;15.27;2.03;;;;;;;;;;4833475;29;20037;-83
2022/02/16 11:30:31;;;;;;;14.30;2.53;;;;;;;;;;4845408;29;20053;-82
2022/02/16 11:33:20;;;;;;;17.10;2.65;;;;;;;;;;4829250;29;20543;-83
2022/02/16 11:35:57;;;;;;;14.13;2.45;;;;;;;;;;4819167;29;20049;-87
2022/02/16 11:38:25;;;;;;;18.98;3.03;;;;;;;;;;4834375;29;20042;-90
2022/02/16 11:40:53;;;;;;;13.45;2.58;;;;;;;;;;4830928;29;20053;-84
2022/02/16 11:43:22;;;;;;;15.85;2.47;;;;;;;;;;4844224;29;20062;-83
2022/02/16 11:46:03;;;;;;;16.38;2.95;;;;;;;;;;4861722;29;20178;-82
2022/02/16 11:48:50;;;;;;;21.63;3.47;;;;;;;;;;4828400;29;20390;-82
2022/02/16 11:51:25;;;;;;;12.35;2.22;;;;;;;;;;4856734;29;20053;-86
2022/02/16 11:53:55;;;;;;;15.80;3.05;;;;;;;;;;4854167;29;20087;-86
2022/02/16 11:56:22;;;;;;;16.23;2.95;;;;;;;;;;4839337;29;20081;-86
2022/02/16 11:59:16;;;;;;;16.02;3.05;;;;;;;;;;4828141;29;20404;-86
2022/02/16 12:02:01;;;;;;;10.82;3.20;;;;;;;;;;4859520;29;20080;-84
2022/02/16 12:04:31;;;;;;;17.13;2.72;;;;;;;;;;4841224;29;20457;-86
2022/02/16 12:07:17;;;;;;;16.73;3.75;;;;;;;;;;4877104;29;20037;-85
2022/02/16 12:09:43;;;;;;;21.17;3.03;;;;;;;;;;4839823;29;20045;-85
2022/02/16 12:12:12;;;;;;;19.25;3.38;;;;;;;;;;4839538;29;20045;-84
2022/02/16 12:14:40;;;;;;;15.23;2.70;;;;;;;;;;4837366;29;20376;-86
2022/02/16 12:17:06;;;;;;;25.65;3.85;;;;;;;;;;4826647;29;20053;-82
2022/02/16 12:19:33;;;;;;;18.30;2.85;;;;;;;;;;4839874;29;21101;-80
2022/02/16 12:22:00;;;;;;;12.88;3.35;;;;;;;;;;4822771;29;20053;-80
2022/02/16 12:24:28;;;;;;;24.80;3.97;;;;;;;;;;4838680;29;20084;-81
2022/02/16 12:26:56;;;;;;;18.60;3.72;;;;;;;;;;4841551;29;20484;-80
2022/02/16 12:29:23;;;;;;;24.52;4.30;;;;;;;;;;4838709;29;20057;-79
2022/02/16 12:31:50;;;;;;;17.33;3.30;;;;;;;;;;4847825;29;20048;-80
2022/02/16 12:34:21;;;;;;;18.08;3.35;;;;;;;;;;4856869;29;20046;-84
2022/02/16 12:36:48;;;;;;;20.67;4.28;;;;;;;;;;4846972;29;20057;-82
2022/02/16 12:39:14;;;;;;;20.27;3.97;;;;;;;;;;4840870;29;20126;-83
2022/02/16 12:41:41;;;;;;;17.60;3.72;;;;;;;;;;4840913;29;20047;-78
2022/02/16 12:44:08;;;;;;;21.98;4.30;;;;;;;;;;4841367;29;20062;-78
2022/02/16 12:46:37;;;;;;;16.27;4.13;;;;;;;;;;4861096;29;20806;-77
2022/02/16 12:49:04;;;;;;;23.60;4.70;;;;;;;;;;4840261;29;20065;-76
2022/02/16 12:51:33;;;;;;;17.67;3.70;;;;;;;;;;4842773;29;20045;-76
2022/02/16 12:54:10;;;;;;;15.05;3.13;;;;;;;;;;4842704;29;20068;-78
2022/02/16 12:56:37;;;;;;;20.90;4.38;;;;;;;;;;4870567;29;20508;-77
2022/02/16 12:59:17;;;;;;;18.73;3.85;;;;;;;;;;4850703;29;20054;-77
2022/02/16 13:01:43;;;;;;;19.13;2.95;;;;;;;;;;4853451;29;20423;-82
2022/02/16 13:04:10;;;;;;;21.45;4.43;;;;;;;;;;4842692;29;20481;-80
2022/02/16 13:06:37;;;;;;;23.70;4.03;;;;;;;;;;4851447;29;20041;-85
2022/02/16 13:09:03;;;;;;;19.10;3.80;;;;;;;;;;4836668;29;20105;-82
2022/02/16 13:11:39;;;;;;;21.98;3.60;;;;;;;;;;4848902;29;20053;-83
2022/02/16 13:14:09;;;;;;;23.10;4.53;;;;;;;;;;4844807;29;20053;-81
2022/02/16 13:16:35;;;;;;;15.70;3.60;;;;;;;;;;4833223;29;20145;-81
2022/02/16 13:19:02;;;;;;;18.35;3.45;;;;;;;;;;4846224;29;20136;-82
2022/02/16 13:21:29;;;;;;;19.73;4.25;;;;;;;;;;4858301;29;20109;-82
2022/02/16 13:24:09;;;;;;;17.20;3.35;;;;;;;;;;4843521;29;20109;-82
2022/02/16 13:26:43;;;;;;;17.88;4.32;;;;;;;;;;4835381;29;20501;-82
2022/02/16 13:29:09;;;;;;;16.23;3.42;;;;;;;;;;4847709;29;20052;-81
2022/02/16 13:31:38;;;;;;;27.27;5.32;;;;;;;;;;4849669;29;20104;-82
2022/02/16 13:34:08;;;;;;;21.95;4.28;;;;;;;;;;4880933;29;20095;-83
2022/02/16 13:36:39;;;;;;;17.73;4.07;;;;;;;;;;4853806;29;20500;-83
2022/02/16 13:39:12;;;;;;;31.45;4.50;;;;;;;;;;4844727;29;20563;-84
2022/02/16 13:41:38;;;;;;;;;;;;;;;;;;4831296;29;20500;-82
2022/02/16 13:44:05;;;;;;;25.08;5.50;;;;;;;;;;4845270;29;19924;-82
2022/02/16 13:46:46;;;;;;;21.10;3.65;;;;;;;;;;4830349;29;20041;-82
2022/02/16 13:49:17;;;;;;;27.02;4.70;;;;;;;;;;4851443;29;20049;-83
2022/02/16 13:51:51;;;;;;;29.63;4.75;;;;;;;;;;4844832;29;20170;-83
2022/02/16 13:54:19;;;;;;;29.75;4.90;;;;;;;;;;4841708;29;20493;-83
2022/02/16 13:56:50;;;;;;;26.38;4.93;;;;;;;;;;4840616;29;20490;-84
2022/02/16 13:59:16;;;;;;;29.73;5.72;;;;;;;;;;4881630;29;20169;-83
2022/02/16 14:01:42;;;;;;;30.67;5.63;;;;;;;;;;4837825;29;20108;-82
2022/02/16 14:04:10;;;;;;;28.10;4.72;;;;;;;;;;4850165;29;20069;-82
2022/02/16 14:06:36;;;;;;;27.55;5.45;;;;;;;;;;4827374;29;20061;-85
2022/02/16 14:09:05;;;;;;;33.22;5.40;;;;;;;;;;4844213;29;20041;-84
2022/02/16 14:11:32;;;;;;;29.80;5.97;;;;;;;;;;4825562;29;20061;-83
2022/02/16 14:13:58;;;;;;;32.80;5.88;;;;;;;;;;4832160;29;20083;-84
2022/02/16 14:16:26;;;;;;;38.30;6.53;;;;;;;;;;4843889;29;20053;-83
2022/02/16 14:21:38;;;;;;;36.05;7.47;;;;;;;;;;4853832;29;20061;-82
2022/02/16 14:24:04;;;;;;;34.30;6.45;;;;;;;;;;4850482;29;20053;-82
2022/02/16 14:26:31;;;;;;;32.47;6.15;;;;;;;;;;4835204;29;20049;-80
2022/02/16 14:28:57;;;;;;;26.70;6.55;;;;;;;;;;4870027;29;20046;-82
2022/02/16 14:31:23;;;;;;;33.17;8.02;;;;;;;;;;4842401;29;20161;-79